PWSweather.com
Personal Weather Stations
Station Observations

ChardChardGB

Lat: 50.877408, Lon: -2.94964741

Elevation: 341

Station Type: WS3083

http://www.merriott-astro.co.uk/weather/index.htm

Latest ConditionsUpdated 3:50:08 AM GMT Sunday, Dec 15, 2019
Currently Today's Max Today's Min Today's Average
Temperature 41.9°F5.5°C 44.2°F6.8°C 41.5°F5.3°C 42.3°F5.7°C
Dew Point 33.5°F0.8°C 39.7°F4.3°C 33.2°F0.7°C 34.8°F1.6°C
Winds 8.7 mph S14.0 kmh S 11.9 mph -19.2 kmh - - 9.0 mph 14.5 kmh
Wind Gusts 11.4 mph18.3 kmh 17.4 mph28.0 kmh - -
Humidity 72% 84% 71% 75%
Pressure 29.41 in995.9 mb 29.41 in995.9 mb 29.32 in992.9 mb -
Precipitation - 0.02 in0.5 mm - -
Hour Temp Dew Point Humidity Winds Wind Gusts Pressure Precip Precip Rate Daily Precip Total
03:50 AM 41.9°F5.5°C 33.5°F0.8°C 72% 8.7 mph S14.0 kmh S 11.4 mph18.3 kmh 29.41 in995.9 mb 0.00 in0.0 mm 0.00 in0.0 mm 0.02 in0.5 mm
03:40 AM 41.5°F5.3°C 33.2°F0.7°C 72% 6.7 mph SW10.8 kmh SW 10.7 mph17.2 kmh 29.40 in995.6 mb 0.00 in0.0 mm 0.00 in0.0 mm 0.02 in0.5 mm
03:30 AM 41.7°F5.4°C 33.4°F0.8°C 72% 7.3 mph SW11.7 kmh SW 9.8 mph15.8 kmh 29.40 in995.6 mb 0.00 in0.0 mm 0.00 in0.0 mm 0.02 in0.5 mm
03:20 AM 41.9°F5.5°C 33.9°F1.1°C 73% 8.2 mph S13.2 kmh S 13.6 mph21.9 kmh 29.40 in995.6 mb 0.00 in0.0 mm 0.00 in0.0 mm 0.02 in0.5 mm
03:10 AM 41.7°F5.4°C 34.1°F1.2°C 74% 7.9 mph SW12.7 kmh SW 9.8 mph15.8 kmh 29.39 in995.3 mb 0.00 in0.0 mm 0.00 in0.0 mm 0.02 in0.5 mm
03:00 AM 41.5°F5.3°C 33.9°F1.1°C 74% 8.1 mph SSW13.0 kmh SSW 10.7 mph17.2 kmh 29.40 in995.6 mb 0.00 in0.0 mm 0.00 in0.0 mm 0.02 in0.5 mm
02:50 AM 41.5°F5.3°C 33.9°F1.1°C 74% 8.4 mph SW13.5 kmh SW 12.1 mph19.5 kmh 29.39 in995.3 mb 0.00 in0.0 mm 0.00 in0.0 mm 0.02 in0.5 mm
02:40 AM 41.5°F5.3°C 33.5°F0.8°C 73% 7.6 mph SSW12.2 kmh SSW 9.8 mph15.8 kmh 29.39 in995.3 mb 0.00 in0.0 mm 0.00 in0.0 mm 0.02 in0.5 mm
02:30 AM 41.7°F5.4°C 33.4°F0.8°C 72% 8.2 mph SSW13.2 kmh SSW 9.8 mph15.8 kmh 29.38 in994.9 mb 0.00 in0.0 mm 0.00 in0.0 mm 0.02 in0.5 mm
02:20 AM 41.9°F5.5°C 33.5°F0.8°C 72% 7.2 mph SW11.6 kmh SW 17.4 mph28.0 kmh 29.37 in994.6 mb 0.00 in0.0 mm 0.00 in0.0 mm 0.02 in0.5 mm
02:10 AM 42.1°F5.6°C 33.4°F0.8°C 71% 9.2 mph SSW14.8 kmh SSW 12.1 mph19.5 kmh 29.38 in994.9 mb 0.00 in0.0 mm 0.00 in0.0 mm 0.02 in0.5 mm
02:00 AM 42.3°F5.7°C 33.5°F0.8°C 71% 10.2 mph WSW16.4 kmh WSW 12.1 mph19.5 kmh 29.36 in994.2 mb 0.00 in0.0 mm 0.00 in0.0 mm 0.02 in0.5 mm
01:50 AM 42.3°F5.7°C 33.9°F1.1°C 72% 10.3 mph SSW16.6 kmh SSW 14.5 mph23.3 kmh 29.36 in994.2 mb 0.00 in0.0 mm 0.00 in0.0 mm 0.02 in0.5 mm
01:40 AM 42.3°F5.7°C 34.2°F1.2°C 73% 10.9 mph SW17.5 kmh SW 17.4 mph28.0 kmh 29.36 in994.2 mb 0.00 in0.0 mm 0.00 in0.0 mm 0.02 in0.5 mm
01:30 AM 42.4°F5.8°C 34.4°F1.3°C 73% 9.8 mph SW15.8 kmh SW 13.0 mph20.9 kmh 29.35 in993.9 mb 0.00 in0.0 mm 0.00 in0.0 mm 0.02 in0.5 mm
01:20 AM 42.6°F5.9°C 34.6°F1.4°C 73% 11.1 mph SW17.9 kmh SW 13.6 mph21.9 kmh 29.35 in993.9 mb 0.00 in0.0 mm 0.00 in0.0 mm 0.02 in0.5 mm
01:10 AM 42.8°F6.0°C 35.1°F1.7°C 74% 11.9 mph SW19.2 kmh SW 15.2 mph24.5 kmh 29.35 in993.9 mb 0.00 in0.0 mm 0.00 in0.0 mm 0.02 in0.5 mm
01:00 AM 42.6°F5.9°C 35.6°F2.0°C 76% 11.5 mph SW18.5 kmh SW 17.4 mph28.0 kmh 29.34 in993.6 mb 0.02 in0.5 mm 0.00 in0.0 mm 0.02 in0.5 mm
12:50 AM 42.4°F5.8°C 35.4°F1.9°C 76% 8.2 mph SSW13.2 kmh SSW 10.7 mph17.2 kmh 29.34 in993.6 mb 0.05 in1.3 mm 0.00 in0.0 mm 0.02 in0.5 mm
12:40 AM 42.6°F5.9°C 35.9°F2.2°C 77% 8.0 mph SSW12.9 kmh SSW 10.7 mph17.2 kmh 29.33 in993.2 mb 0.05 in1.3 mm 0.00 in0.0 mm 0.02 in0.5 mm
12:30 AM 43.0°F6.1°C 36.9°F2.7°C 79% 8.2 mph W13.2 kmh W 10.7 mph17.2 kmh 29.34 in993.6 mb 0.05 in1.3 mm 0.00 in0.0 mm 0.02 in0.5 mm
12:20 AM 43.3°F6.3°C 37.6°F3.1°C 80% 8.8 mph SW14.2 kmh SW 12.1 mph19.5 kmh 29.34 in993.6 mb 0.05 in1.3 mm 0.00 in0.0 mm 0.02 in0.5 mm
12:10 AM 43.9°F6.6°C 38.4°F3.6°C 81% 11.7 mph SW18.8 kmh SW 15.9 mph25.6 kmh 29.33 in993.2 mb 0.05 in1.3 mm 0.18 in4.6 mm 0.02 in0.5 mm
12:00 AM 44.2°F6.8°C 39.7°F4.3°C 84% 7.1 mph SSW11.4 kmh SSW 13.0 mph20.9 kmh 29.32 in992.9 mb 0.02 in0.5 mm 0.00 in0.0 mm 0.02 in0.5 mm